• Join FlightAware (Why Join?)
  • Login
  • US Flag 
01:48PM EDT


 

Airport Tracker/Info


-or-


 

Live Flight TrackerFlight Track Log ✈ UAL3776 ✈ 26-Apr-2013 ✈ KMIA - KIAD

Flight Track Log - Related Links

Times and Time Zones

All times are in EDT time to prevent confusion due to time zone crossing. See the UAL3776 flight status page for this flight to view local times or setup timezone preferences in your user account.

Time Position Orientation Groundspeed Altitude Reporting Facility
EDT Latitude Longitude Course Direction KTS MPH feet Rate Location/Type
12:00PM 25.7983 -80.2697 84° East 158 182 800  Level Miami Center
12:01PM 25.8036 -80.2147 84° East 230 265 2,000 2,100 Climbing Miami Center
12:02PM 25.8178 -80.1411 78° East 248 285 4,900 2,520 Climbing Miami Center
12:02PM 25.8517 -80.1283 19° North 267 307 5,600 2,520 Climbing Miami Center
12:03PM 25.9178 -80.1625 335° Northwest 272 313 8,400 2,760 Climbing Miami Center
12:04PM 25.9503 -80.1981 315° West 282 325 10,200 1,860 Climbing Miami Center
12:04PM 25.9811 -80.2172 331° Northwest 310 357 10,300 1,260 Climbing Miami Center
12:05PM 26.0158 -80.2553 315° West 354 407 11,400 1,980 Climbing Miami Center
12:05PM 26.0489 -80.2747 332° Northwest 338 389 12,300 1,860 Climbing Miami Center
12:06PM 26.1244 -80.3394 322° Northwest 348 400 14,100 1,800 Climbing Miami Center
12:07PM 26.2022 -80.4064 322° Northwest 348 400 16,000 1,680 Climbing Miami Center
12:08PM 26.2908 -80.4600 332° Northwest 353 406 17,500 1,500 Climbing Miami Center
12:09PM 26.3878 -80.5069 337° Northwest 374 430 19,100 1,560 Climbing Miami Center
12:10PM 26.4847 -80.5542 336° Northwest 374 430 20,700 1,440 Climbing Miami Center
12:11PM 26.5736 -80.5942 338° Northwest 379 436 22,000 1,260 Climbing Miami Center
12:12PM 26.6869 -80.6489 337° Northwest 390 449 23,300 1,320 Climbing Miami Center
12:13PM 26.7903 -80.6964 338° Northwest 395 455 24,700 1,200 Climbing Miami Center
12:14PM 26.8978 -80.7372 341° North 395 455 25,800 900 Climbing Miami Center
12:16PM 27.1189 -80.8144 343° North 410 472 27,500 840 Climbing Miami Center
12:17PM 27.2325 -80.8581 341° North 417 480 28,400 1,140 Climbing Miami Center
12:18PM 27.3256 -80.8942 341° North 419 482 29,800 1,200 Climbing Miami Center
12:19PM 27.4517 -80.9383 343° North 419 482 30,800 1,200 Climbing Miami Center
12:20PM 27.5656 -80.9750 344° North 419 482 32,200 1,200 Climbing Miami Center
12:21PM 27.6689 -81.0117 343° North 408 470 33,300 1,020 Climbing Miami Center
12:22PM 27.7789 -81.0319 351° North 398 458 34,300 900 Climbing Miami Center
12:23PM 27.8931 -81.0528 351° North 393 452 35,100 780 Climbing Miami Center
12:24PM 27.9989 -81.0706 352° North 393 452 35,900 660 Climbing Miami Center
12:25PM 28.1069 -81.0911 350° North 388 447 36,500 540 Climbing Miami Center
12:26PM 28.2106 -81.1117 350° North 383 441 37,000 240 Climbing Miami Center
12:27PM 28.3247 -81.1347 350° North 395 455 37,000  Level Miami Center
12:28PM 28.4389 -81.1533 352° North 407 468 37,000  Level Miami Center
12:29PM 28.5531 -81.1742 351° North 413 475 37,000  Level Miami Center
12:30PM 28.6567 -81.1969 349° North 418 481 37,000  Level Miami Center
12:30PM 28.7064 -81.2072 350° North 418 481 37,000  Level Jacksonville Center
12:31PM 28.8258 -81.2267 352° North 429 494 37,000  Level Jacksonville Center
12:32PM 28.9428 -81.2506 350° North 429 494 37,000  Level Jacksonville Center
12:33PM 29.0578 -81.2678 353° North 429 494 37,000  Level Jacksonville Center
12:34PM 29.1772 -81.2919 350° North 429 494 37,000  Level Jacksonville Center
12:35PM 29.2944 -81.3139 351° North 429 494 37,000  Level Jacksonville Center
12:36PM 29.4114 -81.3358 351° North 429 494 37,000  Level Jacksonville Center
12:37PM 29.5369 -81.3600 350° North 424 488 37,000  Level Jacksonville Center
12:38PM 29.6564 -81.3822 351° North 424 488 37,000  Level Jacksonville Center
12:39PM 29.7714 -81.4042 351° North 424 488 37,000  Level Jacksonville Center
12:40PM 29.8864 -81.4242 351° North 424 488 37,000  Level Jacksonville Center
12:41PM 30.0017 -81.4486 350° North 419 482 37,000  Level Jacksonville Center
12:42PM 30.1083 -81.4664 352° North 419 482 37,000  Level Jacksonville Center
12:43PM 30.2233 -81.4886 351° North 419 482 37,000  Level Jacksonville Center
12:44PM 30.3403 -81.5061 353° North 424 488 37,000  Level Jacksonville Center
12:45PM 30.4636 -81.4997 North 429 494 37,000  Level Jacksonville Center
12:46PM 30.5825 -81.4906 North 424 488 37,000  Level Jacksonville Center
12:47PM 30.7033 -81.4817 North 424 488 37,000  Level Jacksonville Center
12:48PM 30.8244 -81.4725 North 424 488 37,000  Level Jacksonville Center
12:49PM 30.9433 -81.4636 North 424 488 37,000  Level Jacksonville Center
12:50PM 31.0622 -81.4519 North 424 488 37,000  Level Jacksonville Center
12:51PM 31.1833 -81.4453 North 424 488 37,000  Level Jacksonville Center
12:52PM 31.3042 -81.4264 North 424 488 37,000  Level Jacksonville Center
12:53PM 31.4353 -81.3878 14° North 429 494 37,000  Level Jacksonville Center
12:54PM 31.5433 -81.3617 12° North 435 501 37,000  Level Jacksonville Center
12:55PM 31.6767 -81.3253 13° North 435 501 37,000  Level Jacksonville Center
12:56PM 31.7972 -81.2939 12° North 440 506 37,000  Level Jacksonville Center
12:57PM 31.9097 -81.2628 13° North 446 513 37,000  Level Jacksonville Center
12:58PM 32.0303 -81.2311 13° North 451 519 37,000  Level Jacksonville Center
12:59PM 32.1531 -81.1919 15° North 451 519 37,000  Level Jacksonville Center
01:00PM 32.2689 -81.1161 29° Northeast 460 529 37,000  Level Jacksonville Center
01:01PM 32.3928 -81.0278 31° Northeast 473 544 37,000  Level Jacksonville Center
01:02PM 32.4942 -80.9517 32° Northeast 473 544 37,000  Level Jacksonville Center
01:03PM 32.6075 -80.8678 32° Northeast 473 544 37,000  Level Jacksonville Center
01:04PM 32.7169 -80.7864 32° Northeast 466 536 37,000  Level Jacksonville Center
01:05PM 32.8303 -80.7072 30° Northeast 466 536 37,000  Level Jacksonville Center
01:06PM 32.9417 -80.6253 32° Northeast 466 536 37,000  Level Jacksonville Center
01:07PM 33.0550 -80.5431 31° Northeast 466 536 37,000  Level Jacksonville Center
01:08PM 33.1661 -80.4633 31° Northeast 466 536 37,000  Level Jacksonville Center
01:09PM 33.2792 -80.3781 32° Northeast 466 536 37,000  Level Jacksonville Center
01:10PM 33.3922 -80.2953 31° Northeast 466 536 37,000  Level Jacksonville Center
01:11PM 33.5139 -80.2144 29° Northeast 461 531 37,000  Level Jacksonville Center
01:12PM 33.6292 -80.1486 25° Northeast 456 525 37,000  Level Jacksonville Center
01:13PM 33.7444 -80.0803 26° Northeast 451 519 37,000  Level Jacksonville Center
01:14PM 33.8578 -80.0117 27° Northeast 451 519 37,000  Level Jacksonville Center
01:15PM 33.9731 -79.9453 26° Northeast 451 519 37,000  Level Jacksonville Center
01:16PM 34.0861 -79.8761 27° Northeast 451 519 37,000  Level Jacksonville Center
01:18PM 34.2786 -79.7614 26° Northeast 412 474 37,000  Level Washington Center
01:19PM 34.3894 -79.6914 28° Northeast 435 501 37,000  Level Washington Center
01:20PM 34.5022 -79.6267 25° Northeast 435 501 37,000  Level Washington Center
01:21PM 34.6150 -79.5589 26° Northeast 435 501 37,000  Level Washington Center
01:22PM 34.7300 -79.4889 27° Northeast 435 501 37,000  Level Washington Center
01:23PM 34.8428 -79.4208 26° Northeast 447 514 37,000  Level Washington Center
01:24PM 34.9600 -79.3503 26° Northeast 453 521 37,000  Level Washington Center
01:25PM 35.0728 -79.2794 27° Northeast 458 527 37,000  Level Washington Center
01:26PM 35.1875 -79.2108 26° Northeast 458 527 37,000  Level Washington Center
01:27PM 35.3000 -79.1422 26° Northeast 458 527 37,000  Level Washington Center
01:28PM 35.4233 -79.0686 26° Northeast 458 527 37,000 -300 Level Washington Center
01:29PM 35.5381 -78.9997 26° Northeast 458 527 36,500 -1,080 Descending Washington Center
01:30PM 35.6464 -78.9275 28° Northeast 458 527 34,900 -1,620 Descending Washington Center
01:31PM 35.7567 -78.8631 25° Northeast 439 505 33,400 -1,500 Descending Washington Center
01:32PM 35.8672 -78.7908 28° Northeast 439 505 31,900 -1,560 Descending Washington Center
01:33PM 35.9794 -78.7286 24° Northeast 444 511 30,300 -1,620 Descending Washington Center
01:34PM 36.0894 -78.6661 25° Northeast 433 498 28,800 -1,560 Descending Washington Center
01:35PM 36.1953 -78.6058 25° Northeast 422 486 27,300 -900 Descending Washington Center
01:36PM 36.2992 -78.5456 25° Northeast 416 479 27,000 -180 Descending Washington Center
01:37PM 36.4047 -78.4875 24° Northeast 411 473 27,000  Level Washington Center
01:38PM 36.5086 -78.4267 25° Northeast 406 467 27,000  Level Washington Center
01:39PM 36.6164 -78.3633 25° Northeast 406 467 27,000  Level Washington Center
01:40PM 36.7136 -78.3072 25° Northeast 406 467 27,000 -540 Level Washington Center
01:41PM 36.8194 -78.2461 25° Northeast 406 467 26,000 -900 Descending Washington Center
01:42PM 36.9272 -78.1822 25° Northeast 406 467 25,300 -960 Descending Washington Center
01:43PM 37.0350 -78.1208 24° Northeast 411 473 24,100 -960 Descending Washington Center
01:44PM 37.1383 -78.0564 26° Northeast 411 473 23,400 -600 Descending Washington Center
01:45PM 37.2481 -77.9947 24° Northeast 411 473 23,000 -660 Descending Washington Center
01:46PM 37.3558 -77.9328 25° Northeast 417 480 22,100 -540 Descending Washington Center
01:47PM 37.4633 -77.8681 26° Northeast 417 480 22,000 -180 Descending Washington Center
01:48PM 37.5731 -77.8058 24° Northeast 422 486 21,800 -1,320 Descending Washington Center
01:49PM 37.6786 -77.7408 26° Northeast 422 486 19,500 -2,100 Descending Washington Center
01:50PM 37.7881 -77.6783 24° Northeast 422 486 17,600 -2,100 Descending Washington Center
01:51PM 37.8914 -77.6178 25° Northeast 417 480 15,300 -2,340 Descending Washington Center
01:52PM 37.9903 -77.5572 26° Northeast 404 465 13,000 -2,460 Descending Washington Center
01:53PM 38.1017 -77.4994 22° Northeast 392 451 10,400 -1,500 Descending Washington Center
01:54PM 38.1839 -77.4461 27° Northeast 359 413 10,000 -240 Descending Washington Center
01:55PM 38.2575 -77.4031 25° Northeast 314 361 10,000 -660 Level Washington Center
01:56PM 38.3292 -77.3625 24° Northeast 286 329 8,800 -1,380 Descending Washington Center
01:57PM 38.4019 -77.3747 353° North 260 299 7,300 -1,500 Descending Washington Center
01:58PM 38.4747 -77.3897 351° North 254 292 5,800 -1,500 Descending Washington Center
01:59PM 38.5494 -77.4047 351° North 254 292 4,300 -900 Descending Washington Center
02:00PM 38.6181 -77.4197 350° North 254 292 4,000 -180 Descending Washington Center
02:01PM 38.7000 -77.4333 353° North 254 292 4,000 -480 Level Potomac TRACON
02:02PM 38.7667 -77.4333 360° North 214 246 3,100 -660 Descending Potomac TRACON
02:03PM 38.8167 -77.4333 360° North 186 214 2,700 -720 Descending Potomac TRACON
02:04PM 38.8667 -77.4333 360° North 165 190 1,700 -900 Descending Potomac TRACON
02:05PM 38.9000 -77.4333 360° North 141 162 900 -840 Descending Potomac TRACON
02:07PM 38.9474 -77.4599 North  Level Estimated
02:14PM 38.9474 -77.4599 191° South  Level Estimated
02:15PM 38.9474 -77.4599 191° South  Level Estimated
02:16PM 38.9474 -77.4599 191° South  Level Estimated
02:17PM 38.9474 -77.4599 191° South  Level Estimated